Terminal Aerodrome Forecast
Issued by NWS

Home | Current Version | Previous Version | Text Only | Print | Product List | Glossary On
Versions: 1 2 3 4 5 6 7 8 9 10 11 12 13 14 15 16 17 18 19 20 21 22 23 24 25 26 27
000
FTUS41 KOKX 260200 AAA
TAFGON
TAF AMD
KGON 260234Z 2603/2624 35009KT P6SM BKN250
     FM260600 02008KT P6SM BKN060
     FM261400 05015G23KT P6SM BKN030
      TEMPO 2615/2618 3SM -SN BR BKN015
     FM261800 05015G23KT 1SM -SN BR BKN007
     FM262100 04019G29KT 3/4SM -SN BR BKN007=

USA.gov is the U.S. government's official web portal to all federal, state and local government web resources and services.